Skip Navigation Links Skip Navigation Links

Current Weather

Norman Y. Mineta San Jose International, San Jose, Calif.

For information only: do not use for flight planning or navigation.
Latest weather
Observation time Thursday, December 3, 2020 11:53 PM PST
Local time Friday, December 4, 2020 12:26 AM PST
Flight conditions Visual Meteorological Conditions
Winds
Wind speed calm
Visibility 9 mi.
Sky condition
Ceiling unlimited
Cloud layer scattered clouds 15,000 ft.
Temperature 47°F
Dewpoint 38°F
Altimeter 30.31 in.Hg
Derived measurements
Relative humidity 71%
Wind chill 47°F
Density altitude -1076 ft.
Sea-level pressure 30.31 in.Hg
Climate data
Temperature minimum, last 24 hours 40°F
Temperature maximum, last 24 hours 65°F
Remarks
Automated weather observing station with precipitation discriminator.
Last observation of the day.
METAR KSJC 040753Z 00000KT 9SM SCT150 08/03 A3031 RMK AO2 SLP263 LAST T00830033 401830044

Settings

Location code

InnerDrive.Weather 4.0.6770.0 Release CLR 4.0.30319.42000
Copyright ©2018 Inner Drive Technology. All rights reserved. Portions Copyright ©1986-2018 David Braverman.

Find weather

Site navigation


Skip Navigation Links

Place info

Page info

PayPal - The safer, easier way to pay online!

Return home.

Copyright ©2020 Inner Drive Technology. Purveyors of fine, hand-crafted computer software. Page printed 2020-12-04T08:26:51 UTC.